Time;durP1;ratioP1;P1;durP2;ratioP2;P2;SDS_P1;SDS_P2;PMS_P1;PMS_P2;Temp;Humidity;BMP_temperature;BMP_pressure;BME280_temperature;BME280_humidity;BME280_pressure;Samples;Min_cycle;Max_cycle;Signal;HPM_P1;HPM_P2
2021/10/16 00:00:56;;;;;;;11.00;4.60;;;8.10;99.90;;;;;;5030687;28;20459;-73
2021/10/16 00:03:21;;;;;;;10.50;5.07;;;8.10;99.90;;;;;;5031167;28;20159;-73
2021/10/16 00:05:47;;;;;;;11.57;4.90;;;8.20;99.90;;;;;;5030789;28;20266;-73
2021/10/16 00:08:13;;;;;;;9.27;5.63;;;8.00;99.90;;;;;;5029243;28;20266;-73
2021/10/16 00:10:38;;;;;;;13.60;5.10;;;7.90;99.90;;;;;;5030436;28;20186;-73
2021/10/16 00:13:04;;;;;;;7.50;4.77;;;7.90;99.90;;;;;;5030106;27;20659;-73
2021/10/16 00:15:29;;;;;;;7.90;4.50;;;7.90;99.90;;;;;;5030518;28;20671;-73
2021/10/16 00:17:56;;;;;;;8.20;5.00;;;7.90;99.90;;;;;;5036561;28;20204;-73
2021/10/16 00:20:21;;;;;;;13.30;7.00;;;8.00;99.90;;;;;;5030388;28;20176;-73
2021/10/16 00:22:47;;;;;;;9.03;5.30;;;8.00;99.90;;;;;;5028822;28;20420;-73
2021/10/16 00:25:12;;;;;;;9.00;4.80;;;8.00;99.90;;;;;;5029780;28;20245;-73
2021/10/16 00:27:38;;;;;;;11.17;6.07;;;8.00;99.90;;;;;;5029429;28;20182;-73
2021/10/16 00:30:04;;;;;;;7.97;4.40;;;8.00;99.90;;;;;;5029619;28;20194;-73
2021/10/16 00:32:30;;;;;;;11.17;4.90;;;8.00;99.90;;;;;;5029871;28;20172;-73
2021/10/16 00:34:55;;;;;;;8.23;4.53;;;8.00;99.90;;;;;;5029910;28;20410;-73
2021/10/16 00:37:24;;;;;;;7.70;5.60;;;8.00;99.90;;;;;;5030064;28;20194;-73
2021/10/16 00:39:51;;;;;;;12.27;6.47;;;8.00;99.90;;;;;;5030119;28;20203;-73
2021/10/16 00:42:17;;;;;;;9.27;5.53;;;8.00;99.90;;;;;;5028559;28;20415;-73
2021/10/16 00:44:42;;;;;;;8.30;5.20;;;7.80;99.90;;;;;;5010359;27;20434;-73
2021/10/16 00:47:38;;;;;;;5.63;4.60;;;7.80;99.90;;;;;;5027846;28;20213;-73
2021/10/16 00:50:05;;;;;;;9.50;4.97;;;7.80;99.90;;;;;;5029712;28;20222;-73
2021/10/16 00:52:30;;;;;;;7.40;4.90;;;7.90;99.90;;;;;;5024767;28;20523;-73
2021/10/16 00:54:56;;;;;;;8.70;6.10;;;7.80;99.90;;;;;;5009656;27;20454;-73
2021/10/16 00:57:22;;;;;;;7.33;4.50;;;7.70;99.90;;;;;;5009842;28;20206;-73
2021/10/16 00:59:47;;;;;;;9.07;5.40;;;7.60;99.90;;;;;;5010078;28;20179;-73
2021/10/16 01:02:19;;;;;;;9.93;5.23;;;7.40;99.90;;;;;;5010157;28;20176;-73
2021/10/16 01:04:45;;;;;;;14.87;5.90;;;7.30;99.90;;;;;;5020201;27;20199;-73
2021/10/16 01:07:11;;;;;;;9.47;4.63;;;7.30;99.90;;;;;;5010941;28;20466;-73
2021/10/16 01:09:37;;;;;;;14.60;5.60;;;7.40;99.90;;;;;;5023787;28;20537;-71
2021/10/16 01:12:04;;;;;;;5.47;4.17;;;7.40;99.90;;;;;;5029755;28;20442;-73
2021/10/16 01:14:29;;;;;;;7.20;4.80;;;7.50;99.90;;;;;;5030840;28;20179;-73
2021/10/16 01:16:57;;;;;;;7.30;4.63;;;7.50;99.90;;;;;;5032593;28;20457;-73
2021/10/16 01:19:25;;;;;;;7.73;4.97;;;7.60;99.90;;;;;;5032662;27;20429;-73
2021/10/16 01:21:52;;;;;;;5.53;4.27;;;7.60;99.90;;;;;;5032786;28;20412;-73
2021/10/16 01:24:19;;;;;;;6.03;4.03;;;7.60;99.90;;;;;;5031442;28;20512;-73
2021/10/16 01:26:50;;;;;;;7.57;5.10;;;7.50;99.90;;;;;;5032550;28;20790;-73
2021/10/16 01:29:24;;;;;;;8.03;4.87;;;7.40;99.90;;;;;;5032711;28;20431;-71
2021/10/16 01:31:51;;;;;;;7.63;4.30;;;7.30;99.90;;;;;;5032712;28;20404;-71
2021/10/16 01:34:16;;;;;;;10.53;4.57;;;7.20;99.90;;;;;;5032722;28;20406;-71
2021/10/16 01:36:43;;;;;;;5.13;4.50;;;7.20;99.90;;;;;;5030845;27;20456;-71
2021/10/16 01:39:09;;;;;;;6.43;4.53;;;7.10;99.90;;;;;;5032566;28;20223;-71
2021/10/16 01:41:34;;;;;;;7.67;4.23;;;7.10;99.90;;;;;;5031305;28;20409;-71
2021/10/16 01:44:02;;;;;;;6.80;4.60;;;7.10;99.90;;;;;;5032260;28;20257;-71
2021/10/16 01:46:27;;;;;;;12.30;6.00;;;7.10;99.90;;;;;;5030903;28;20191;-71
2021/10/16 01:48:53;;;;;;;8.07;4.27;;;7.00;99.90;;;;;;5032355;28;20793;-71
2021/10/16 01:51:18;;;;;;;7.80;5.10;;;7.00;99.90;;;;;;5032452;28;20220;-71
2021/10/16 01:53:46;;;;;;;6.90;5.20;;;6.90;99.90;;;;;;5031862;28;20171;-71
2021/10/16 01:56:11;;;;;;;10.00;4.23;;;6.90;99.90;;;;;;5029279;28;20248;-71
2021/10/16 01:58:37;;;;;;;7.43;4.97;;;6.80;99.90;;;;;;5032112;28;20453;-71
2021/10/16 02:01:02;;;;;;;7.30;5.30;;;6.80;99.90;;;;;;5032125;28;20194;-71
2021/10/16 02:03:28;;;;;;;8.02;5.65;;;6.70;99.90;;;;;;5031237;28;20452;-71
2021/10/16 02:05:54;;;;;;;9.33;4.73;;;6.80;99.90;;;;;;5032022;28;20187;-71
2021/10/16 02:08:19;;;;;;;10.60;5.17;;;6.80;99.90;;;;;;5030570;28;20182;-71
2021/10/16 02:10:45;;;;;;;7.50;5.00;;;6.70;99.90;;;;;;5032177;28;20524;-71
2021/10/16 02:13:10;;;;;;;10.33;4.70;;;6.70;99.90;;;;;;5031368;27;20429;-71
2021/10/16 02:15:36;;;;;;;6.30;4.73;;;6.80;99.90;;;;;;5031860;28;20262;-71
2021/10/16 02:18:02;;;;;;;9.17;4.87;;;6.90;99.90;;;;;;5030462;28;20210;-71
2021/10/16 02:20:27;;;;;;;6.83;4.30;;;7.00;99.90;;;;;;5032193;28;20650;-71
2021/10/16 02:22:53;;;;;;;10.40;4.50;;;7.00;99.90;;;;;;5031739;28;20170;-71
2021/10/16 02:25:18;;;;;;;6.10;3.70;;;7.10;99.90;;;;;;5031117;28;20195;-71
2021/10/16 02:27:44;;;;;;;7.80;4.50;;;7.20;99.90;;;;;;5031407;28;20702;-71
2021/10/16 02:30:10;;;;;;;5.70;4.43;;;7.20;99.90;;;;;;5030757;28;20628;-71
2021/10/16 02:32:36;;;;;;;7.90;4.50;;;7.20;99.90;;;;;;5031729;28;20167;-71
2021/10/16 02:35:02;;;;;;;9.17;4.60;;;7.10;99.90;;;;;;5031411;28;20446;-71
2021/10/16 02:37:27;;;;;;;8.90;4.37;;;7.10;99.90;;;;;;5031584;28;20198;-71
2021/10/16 02:39:53;;;;;;;6.70;4.80;;;7.10;99.90;;;;;;5030040;28;20422;-71
2021/10/16 02:42:18;;;;;;;7.77;4.10;;;7.10;99.90;;;;;;5023856;28;20184;-71
2021/10/16 02:44:44;;;;;;;5.90;4.10;;;7.10;99.90;;;;;;5011406;28;20254;-71
2021/10/16 02:47:09;;;;;;;7.57;4.77;;;7.00;99.90;;;;;;5011815;28;20202;-71
2021/10/16 02:49:35;;;;;;;7.57;4.40;;;6.90;99.90;;;;;;5011573;28;20234;-71
2021/10/16 02:52:00;;;;;;;8.90;4.23;;;6.80;99.90;;;;;;5013015;28;20167;-71
2021/10/16 02:54:26;;;;;;;8.80;4.20;;;6.70;99.90;;;;;;5031309;28;20175;-71
2021/10/16 02:56:51;;;;;;;7.27;3.87;;;6.70;99.90;;;;;;5030882;28;20626;-71
2021/10/16 02:59:17;;;;;;;11.73;4.30;;;6.70;99.90;;;;;;5030820;27;20269;-71
2021/10/16 03:01:42;;;;;;;5.57;4.23;;;6.60;99.90;;;;;;5030553;28;20167;-71
2021/10/16 03:04:08;;;;;;;11.03;4.30;;;6.50;99.90;;;;;;5029702;28;20541;-71
2021/10/16 03:06:34;;;;;;;9.67;3.87;;;6.40;99.90;;;;;;5030997;28;20258;-71
2021/10/16 03:08:59;;;;;;;6.63;3.80;;;6.30;99.90;;;;;;5029138;27;20190;-71
2021/10/16 03:11:25;;;;;;;5.70;4.17;;;6.30;99.90;;;;;;5031156;28;20255;-71
2021/10/16 03:13:50;;;;;;;5.93;4.33;;;6.20;99.90;;;;;;5027424;28;20254;-71
2021/10/16 03:16:20;;;;;;;8.03;4.40;;;6.20;99.90;;;;;;5011356;28;20199;-72
2021/10/16 03:18:46;;;;;;;7.60;4.40;;;6.30;99.90;;;;;;5013390;27;20298;-72
2021/10/16 03:21:11;;;;;;;5.33;3.57;;;6.40;99.90;;;;;;5019012;28;20937;-72
2021/10/16 03:23:37;;;;;;;6.13;3.60;;;6.50;99.90;;;;;;5030644;28;20448;-71
2021/10/16 03:26:02;;;;;;;7.77;4.23;;;6.50;99.90;;;;;;5029532;28;20214;-71
2021/10/16 03:28:29;;;;;;;10.60;4.70;;;6.50;99.90;;;;;;5031127;28;20582;-71
2021/10/16 03:30:54;;;;;;;7.37;4.53;;;6.50;99.90;;;;;;5039522;28;20524;-72
2021/10/16 03:33:20;;;;;;;5.77;4.20;;;6.50;99.90;;;;;;5031107;28;20420;-72
2021/10/16 03:35:45;;;;;;;4.70;3.93;;;6.40;99.90;;;;;;5028871;28;20209;-72
2021/10/16 03:38:11;;;;;;;5.20;4.20;;;6.30;99.90;;;;;;5030846;28;20199;-72
2021/10/16 03:40:38;;;;;;;6.40;3.90;;;6.30;99.90;;;;;;5031124;28;20604;-72
2021/10/16 03:43:03;;;;;;;5.50;4.17;;;6.30;99.90;;;;;;5030661;28;20190;-71
2021/10/16 03:45:29;;;;;;;5.70;4.20;;;6.30;99.90;;;;;;5029123;28;20463;-72
2021/10/16 03:47:54;;;;;;;6.20;4.20;;;6.30;99.90;;;;;;5032510;28;20186;-72
2021/10/16 03:50:20;;;;;;;9.30;4.03;;;6.20;99.90;;;;;;5032856;28;20190;-71
2021/10/16 03:52:46;;;;;;;9.23;5.50;;;6.10;99.90;;;;;;5036451;28;20171;-72
2021/10/16 03:55:12;;;;;;;5.63;4.27;;;6.00;99.90;;;;;;5037015;28;20694;-71
2021/10/16 03:57:37;;;;;;;6.07;4.53;;;6.00;99.90;;;;;;5028866;28;20466;-71
2021/10/16 04:00:05;;;;;;;7.93;4.70;;;6.00;99.90;;;;;;5030401;28;20175;-71
2021/10/16 04:02:30;;;;;;;6.43;4.30;;;6.00;99.90;;;;;;5030437;28;20168;-71
2021/10/16 04:04:56;;;;;;;6.67;3.73;;;6.00;99.90;;;;;;5030027;28;20418;-71
2021/10/16 04:07:21;;;;;;;9.70;4.10;;;6.10;99.90;;;;;;5028912;28;20201;-71
2021/10/16 04:09:47;;;;;;;6.50;3.80;;;6.20;99.90;;;;;;5029925;28;20190;-71
2021/10/16 04:12:12;;;;;;;9.70;4.00;;;6.30;99.90;;;;;;5030362;28;20182;-72
2021/10/16 04:14:38;;;;;;;6.03;4.07;;;6.40;99.90;;;;;;5029916;27;20659;-71
2021/10/16 04:17:04;;;;;;;6.20;3.90;;;6.50;99.90;;;;;;5029884;28;20206;-71
2021/10/16 04:19:29;;;;;;;6.80;4.07;;;6.50;99.90;;;;;;5028922;28;20185;-71
2021/10/16 04:21:55;;;;;;;5.00;4.20;;;6.50;99.90;;;;;;5029880;28;20428;-72
2021/10/16 04:24:21;;;;;;;6.37;4.20;;;6.60;99.90;;;;;;5028710;28;20605;-71
2021/10/16 04:26:47;;;;;;;7.87;4.27;;;6.60;99.90;;;;;;5029860;28;20194;-72
2021/10/16 04:29:13;;;;;;;4.93;3.43;;;6.60;99.90;;;;;;5028560;28;20651;-71
2021/10/16 04:31:38;;;;;;;6.13;3.60;;;6.40;99.90;;;;;;5029974;28;20425;-71
2021/10/16 04:34:06;;;;;;;4.67;3.73;;;6.30;99.90;;;;;;5029855;28;20786;-71
2021/10/16 04:36:32;;;;;;;12.97;3.90;;;6.20;99.90;;;;;;5029643;28;20191;-71
2021/10/16 04:38:58;;;;;;;4.80;3.60;;;6.00;99.90;;;;;;5028860;27;20822;-71
2021/10/16 04:41:23;;;;;;;7.97;4.67;;;5.90;99.90;;;;;;5030746;28;20497;-71
2021/10/16 04:43:49;;;;;;;5.27;3.77;;;5.90;99.90;;;;;;5010354;28;20716;-71
2021/10/16 04:46:15;;;;;;;4.93;3.53;;;5.90;99.90;;;;;;5010909;28;20566;-71
2021/10/16 04:48:42;;;;;;;5.23;3.63;;;6.00;99.90;;;;;;5012141;28;20189;-71
2021/10/16 04:51:09;;;;;;;7.67;4.47;;;6.10;99.90;;;;;;5013991;28;20175;-71
2021/10/16 04:53:34;;;;;;;4.87;3.27;;;6.10;99.90;;;;;;5014919;28;20522;-71
2021/10/16 04:56:00;;;;;;;20.23;4.13;;;6.00;99.90;;;;;;5013556;28;20444;-71
2021/10/16 04:58:25;;;;;;;7.80;3.97;;;6.00;99.90;;;;;;5013496;28;20215;-71
2021/10/16 05:00:51;;;;;;;5.63;4.27;;;5.90;99.90;;;;;;5013685;28;20237;-71
2021/10/16 05:03:16;;;;;;;5.50;3.40;;;5.90;99.90;;;;;;5014336;28;20266;-72
2021/10/16 05:05:42;;;;;;;6.60;3.67;;;5.90;99.90;;;;;;5013279;28;20206;-71
2021/10/16 05:08:07;;;;;;;5.57;3.80;;;5.90;99.90;;;;;;5013068;28;20178;-71
2021/10/16 05:10:34;;;;;;;4.83;3.87;;;5.90;99.90;;;;;;5013280;28;20550;-71
2021/10/16 05:12:59;;;;;;;7.33;3.73;;;5.90;99.90;;;;;;5013190;27;20781;-71
2021/10/16 05:15:25;;;;;;;6.93;4.00;;;5.90;99.90;;;;;;5013810;28;20485;-71
2021/10/16 05:17:50;;;;;;;4.20;3.37;;;5.90;99.90;;;;;;5012927;28;20203;-72
2021/10/16 05:20:16;;;;;;;5.50;3.63;;;5.80;99.90;;;;;;5017958;28;20216;-71
2021/10/16 05:22:41;;;;;;;6.80;3.83;;;5.70;99.90;;;;;;5024157;28;20183;-71
2021/10/16 05:25:07;;;;;;;4.77;4.03;;;5.80;99.90;;;;;;5012538;27;20199;-71
2021/10/16 05:27:33;;;;;;;8.47;4.27;;;5.80;99.90;;;;;;5012970;28;20547;-72
2021/10/16 05:29:58;;;;;;;7.03;3.83;;;5.70;99.90;;;;;;5031316;28;20183;-71
2021/10/16 05:32:24;;;;;;;8.20;5.20;;;5.80;99.90;;;;;;5023651;28;20179;-72
2021/10/16 05:34:49;;;;;;;7.00;3.93;;;5.80;99.90;;;;;;5022689;28;20187;-72
2021/10/16 05:37:15;;;;;;;5.33;4.03;;;5.90;99.90;;;;;;5023505;27;20309;-72
2021/10/16 05:39:41;;;;;;;6.10;4.00;;;6.10;99.90;;;;;;5020639;28;20278;-72
2021/10/16 05:42:07;;;;;;;6.37;3.63;;;6.10;99.90;;;;;;5016814;28;20572;-72
2021/10/16 05:44:33;;;;;;;4.77;3.00;;;6.20;99.90;;;;;;5025425;28;20179;-72
2021/10/16 05:46:59;;;;;;;9.23;4.40;;;6.30;99.90;;;;;;5032586;28;21119;-72
2021/10/16 05:49:24;;;;;;;10.60;4.70;;;6.30;99.90;;;;;;5031804;28;20878;-73
2021/10/16 05:51:50;;;;;;;4.27;3.83;;;6.30;99.90;;;;;;5032391;28;20523;-72
2021/10/16 05:54:16;;;;;;;4.77;3.50;;;6.30;99.90;;;;;;5031733;28;20259;-72
2021/10/16 05:56:42;;;;;;;6.73;3.73;;;6.30;99.90;;;;;;5023961;27;20220;-73
2021/10/16 05:59:07;;;;;;;5.33;3.70;;;6.30;99.90;;;;;;5048639;27;20808;-72
2021/10/16 06:01:33;;;;;;;5.23;3.43;;;6.20;99.90;;;;;;5037689;27;20239;-73
2021/10/16 06:03:58;;;;;;;5.00;4.00;;;6.10;99.90;;;;;;5035755;28;20206;-72
2021/10/16 06:06:24;;;;;;;4.43;3.90;;;6.00;99.90;;;;;;5101012;27;20302;-72
2021/10/16 06:08:49;;;;;;;4.83;3.80;;;5.90;99.90;;;;;;5074027;27;20219;-72
2021/10/16 06:11:15;;;;;;;6.40;4.40;;;6.00;99.90;;;;;;5059153;27;20249;-72
2021/10/16 06:13:40;;;;;;;10.27;3.70;;;6.10;99.90;;;;;;5109698;27;20222;-72
2021/10/16 06:16:06;;;;;;;5.70;4.53;;;6.10;99.90;;;;;;5019467;27;20246;-72
2021/10/16 06:18:31;;;;;;;8.20;4.37;;;6.10;99.90;;;;;;5017932;27;20266;-72
2021/10/16 06:20:57;;;;;;;5.97;3.80;;;6.20;99.90;;;;;;5020494;27;20227;-72
2021/10/16 06:23:22;;;;;;;6.33;3.67;;;6.30;99.90;;;;;;5022541;28;20376;-73
2021/10/16 06:25:49;;;;;;;5.07;3.90;;;6.30;99.90;;;;;;5027842;27;20684;-72
2021/10/16 06:28:14;;;;;;;7.80;3.67;;;6.30;99.90;;;;;;5018321;28;20617;-72
2021/10/16 06:30:41;;;;;;;4.70;3.27;;;6.30;99.90;;;;;;5009068;27;20458;-72
2021/10/16 06:33:07;;;;;;;6.90;4.37;;;6.30;99.90;;;;;;5009836;28;20228;-73
2021/10/16 06:35:33;;;;;;;4.83;3.83;;;6.30;99.90;;;;;;5008671;27;20962;-72
2021/10/16 06:37:58;;;;;;;6.77;4.00;;;6.30;99.90;;;;;;5010109;28;20220;-72
2021/10/16 06:40:24;;;;;;;5.33;4.00;;;6.30;99.90;;;;;;5017666;27;20210;-72
2021/10/16 06:42:49;;;;;;;4.47;3.77;;;6.40;99.90;;;;;;5029569;28;20195;-72
2021/10/16 06:45:15;;;;;;;6.03;4.23;;;6.40;99.90;;;;;;5022793;28;20230;-72
2021/10/16 06:47:42;;;;;;;5.60;3.87;;;6.50;99.90;;;;;;5010899;27;20298;-72
2021/10/16 06:50:07;;;;;;;6.60;4.23;;;6.50;99.90;;;;;;5023942;28;20361;-72
2021/10/16 06:52:33;;;;;;;5.17;4.13;;;6.60;99.90;;;;;;5036279;27;21031;-72
2021/10/16 06:54:58;;;;;;;5.40;3.97;;;6.60;99.90;;;;;;5095224;27;20598;-72
2021/10/16 06:57:24;;;;;;;4.40;3.97;;;6.60;99.90;;;;;;5069691;27;20305;-72
2021/10/16 06:59:49;;;;;;;5.43;4.23;;;6.60;99.90;;;;;;5048569;28;20202;-72
2021/10/16 07:02:15;;;;;;;6.33;4.50;;;6.60;99.90;;;;;;5049588;27;20206;-72
2021/10/16 07:04:40;;;;;;;6.47;4.47;;;6.60;99.90;;;;;;5049879;28;20281;-72
2021/10/16 07:07:06;;;;;;;6.17;4.33;;;6.60;99.90;;;;;;5046431;27;20217;-72
2021/10/16 07:09:31;;;;;;;6.50;4.40;;;6.60;99.90;;;;;;5041639;28;20217;-72
2021/10/16 07:11:57;;;;;;;6.67;4.27;;;6.70;99.90;;;;;;5029144;27;20258;-72
2021/10/16 07:14:22;;;;;;;8.20;5.10;;;6.70;99.90;;;;;;5028495;27;20683;-72
2021/10/16 07:16:48;;;;;;;8.23;4.00;;;6.70;99.90;;;;;;5047741;27;20198;-72
2021/10/16 07:19:13;;;;;;;6.60;4.70;;;6.70;99.90;;;;;;5048796;27;20214;-72
2021/10/16 07:21:39;;;;;;;6.43;4.60;;;6.70;99.90;;;;;;5042483;28;20199;-72
2021/10/16 07:24:05;;;;;;;5.17;4.60;;;6.80;99.90;;;;;;5030719;28;20218;-72
2021/10/16 07:26:31;;;;;;;8.03;5.27;;;6.80;99.90;;;;;;5034904;28;20190;-72
2021/10/16 07:28:56;;;;;;;6.13;4.77;;;6.80;99.90;;;;;;5050652;28;20416;-72
2021/10/16 07:31:24;;;;;;;11.77;5.47;;;6.80;99.90;;;;;;5050741;28;20194;-72
2021/10/16 07:33:51;;;;;;;6.80;4.40;;;6.90;99.90;;;;;;5050566;28;20182;-72
2021/10/16 07:36:16;;;;;;;5.10;4.60;;;6.90;99.90;;;;;;5050598;28;21015;-72
2021/10/16 07:38:42;;;;;;;6.20;5.13;;;7.00;99.90;;;;;;5028106;28;20538;-72
2021/10/16 07:41:08;;;;;;;5.87;4.57;;;7.00;99.90;;;;;;5010890;28;20225;-72
2021/10/16 07:43:33;;;;;;;6.40;5.00;;;7.10;99.90;;;;;;5010548;28;20247;-72
2021/10/16 07:45:59;;;;;;;8.33;5.43;;;7.10;99.90;;;;;;5010962;28;20277;-72
2021/10/16 07:48:24;;;;;;;5.27;4.60;;;7.20;99.90;;;;;;5010821;28;20211;-72
2021/10/16 07:50:52;;;;;;;6.87;5.43;;;7.20;99.90;;;;;;5011122;28;20199;-72
2021/10/16 07:53:17;;;;;;;6.50;5.37;;;7.10;99.90;;;;;;5010808;28;20195;-72
2021/10/16 07:55:43;;;;;;;9.80;5.17;;;7.20;99.90;;;;;;5011618;28;20900;-72
2021/10/16 07:58:09;;;;;;;7.37;5.70;;;7.30;99.90;;;;;;5010816;28;20243;-72
2021/10/16 08:00:35;;;;;;;9.77;5.20;;;7.30;99.90;;;;;;5018307;28;20202;-72
2021/10/16 08:03:00;;;;;;;6.77;5.07;;;7.40;99.90;;;;;;5050337;28;20968;-72
2021/10/16 08:05:26;;;;;;;8.40;6.00;;;7.50;99.90;;;;;;5049830;28;20187;-72
2021/10/16 08:07:52;;;;;;;6.23;5.50;;;7.50;99.90;;;;;;5050481;28;20159;-72
2021/10/16 08:10:18;;;;;;;11.37;5.70;;;7.60;99.90;;;;;;5051070;28;20209;-72
2021/10/16 08:12:44;;;;;;;8.80;5.60;;;7.70;99.90;;;;;;5032442;28;20421;-72
2021/10/16 08:15:10;;;;;;;6.80;5.17;;;7.80;99.90;;;;;;5032484;27;20203;-73
2021/10/16 08:17:36;;;;;;;6.80;5.10;;;7.80;99.90;;;;;;5030839;28;20453;-72
2021/10/16 08:20:03;;;;;;;7.23;4.87;;;7.90;99.90;;;;;;5030285;28;20409;-72
2021/10/16 08:22:29;;;;;;;6.80;5.37;;;8.00;99.90;;;;;;5029152;28;20260;-72
2021/10/16 08:24:55;;;;;;;10.67;5.23;;;8.10;99.90;;;;;;5028331;28;20839;-72
2021/10/16 08:27:21;;;;;;;8.27;4.60;;;8.10;99.90;;;;;;5029850;28;20701;-72
2021/10/16 08:29:46;;;;;;;6.53;5.10;;;8.20;99.90;;;;;;5019489;28;20467;-72
2021/10/16 08:32:12;;;;;;;7.97;5.37;;;8.30;99.90;;;;;;5022108;28;20537;-72
2021/10/16 08:34:37;;;;;;;7.47;5.27;;;8.40;99.90;;;;;;5029416;28;20653;-72
2021/10/16 08:37:04;;;;;;;6.60;5.33;;;8.50;99.90;;;;;;5029281;28;20215;-71
2021/10/16 08:39:30;;;;;;;12.03;5.93;;;8.60;99.90;;;;;;5029626;28;20165;-72
2021/10/16 08:41:56;;;;;;;13.00;5.43;;;8.70;99.90;;;;;;5025426;28;20423;-72
2021/10/16 08:44:23;;;;;;;7.43;4.80;;;8.70;99.90;;;;;;5022506;28;20181;-72
2021/10/16 08:46:49;;;;;;;7.07;5.70;;;8.80;99.90;;;;;;5029070;28;20481;-72
2021/10/16 08:49:15;;;;;;;9.93;6.60;;;8.90;99.90;;;;;;5029263;28;20430;-72
2021/10/16 08:51:42;;;;;;;8.30;6.40;;;8.90;99.90;;;;;;5029234;28;20201;-72
2021/10/16 08:54:08;;;;;;;6.80;4.40;;;8.90;99.90;;;;;;5029363;28;20416;-72
2021/10/16 08:56:34;;;;;;;7.90;5.73;;;8.90;99.90;;;;;;5022654;28;20446;-72
2021/10/16 08:58:59;;;;;;;7.00;5.33;;;9.00;99.90;;;;;;5027910;28;20791;-72
2021/10/16 09:01:25;;;;;;;10.13;5.90;;;8.90;99.90;;;;;;5034183;28;20170;-72
2021/10/16 09:03:51;;;;;;;10.97;6.07;;;9.00;99.90;;;;;;5029334;28;20178;-72
2021/10/16 09:06:27;;;;;;;7.67;6.40;;;8.90;99.90;;;;;;5019206;28;20226;-72
2021/10/16 09:08:57;;;;;;;9.80;6.10;;;9.00;99.90;;;;;;5027055;28;20188;-72
2021/10/16 09:11:44;;;;;;;9.13;5.73;;;9.00;99.90;;;;;;5029105;28;20755;-72
2021/10/16 09:14:12;;;;;;;7.13;5.40;;;9.00;99.90;;;;;;5027382;27;20996;-72
2021/10/16 09:16:41;;;;;;;7.80;5.27;;;9.00;99.90;;;;;;5027890;28;20453;-72
2021/10/16 09:19:13;;;;;;;7.07;5.20;;;9.10;99.90;;;;;;5045680;28;20544;-72
2021/10/16 09:21:44;;;;;;;7.33;5.80;;;9.10;99.90;;;;;;5023969;28;20416;-72
2021/10/16 09:24:20;;;;;;;9.83;5.63;;;9.20;99.90;;;;;;5021023;28;20427;-72
2021/10/16 09:26:49;;;;;;;8.57;5.27;;;9.20;99.90;;;;;;5029015;28;20941;-72
2021/10/16 09:29:16;;;;;;;10.73;6.30;;;9.20;99.90;;;;;;5028190;28;20464;-72
2021/10/16 09:31:45;;;;;;;13.97;7.00;;;9.20;99.90;;;;;;5028071;28;20461;-72
2021/10/16 09:34:11;;;;;;;14.03;6.90;;;9.30;99.90;;;;;;5029999;28;20488;-72
2021/10/16 09:36:39;;;;;;;14.40;8.37;;;9.30;99.90;;;;;;5016465;28;20462;-72
2021/10/16 09:39:08;;;;;;;12.50;7.93;;;9.30;99.90;;;;;;5031689;28;20790;-72
2021/10/16 09:41:36;;;;;;;13.03;7.40;;;9.30;99.90;;;;;;5032319;28;20929;-72
2021/10/16 09:44:04;;;;;;;11.10;7.27;;;9.40;99.90;;;;;;5032152;28;20993;-72
2021/10/16 09:46:30;;;;;;;11.83;7.60;;;9.40;99.90;;;;;;5030561;27;20565;-72
2021/10/16 09:49:06;;;;;;;13.50;7.13;;;9.40;99.90;;;;;;5031843;28;20764;-72
2021/10/16 09:51:47;;;;;;;14.93;6.90;;;9.50;99.90;;;;;;5032267;28;20957;-72
2021/10/16 09:54:12;;;;;;;24.13;8.70;;;9.50;99.90;;;;;;5032033;28;20528;-72
2021/10/16 09:56:39;;;;;;;35.53;9.53;;;9.60;99.90;;;;;;5032604;28;20861;-72
2021/10/16 09:59:05;;;;;;;24.57;8.20;;;9.70;99.90;;;;;;5039723;28;20214;-72
2021/10/16 10:01:31;;;;;;;19.10;8.00;;;9.80;99.90;;;;;;5036936;27;20482;-72
2021/10/16 10:03:59;;;;;;;33.03;9.03;;;10.00;99.90;;;;;;5028767;28;20818;-72
2021/10/16 10:06:26;;;;;;;25.87;7.20;;;10.10;99.90;;;;;;5031916;28;20776;-72
2021/10/16 10:08:52;;;;;;;17.53;6.93;;;10.20;99.90;;;;;;5032136;28;20929;-72
2021/10/16 10:11:17;;;;;;;18.10;6.43;;;10.40;99.90;;;;;;5032204;28;20458;-72
2021/10/16 10:13:44;;;;;;;11.27;5.60;;;10.50;99.90;;;;;;5031624;27;20434;-72
2021/10/16 10:16:10;;;;;;;12.60;5.67;;;10.70;99.90;;;;;;5031667;28;20290;-72
2021/10/16 10:21:22;;;;;;;7.60;5.50;;;11.00;99.90;;;;;;5032037;28;20254;-72
2021/10/16 10:23:52;;;;;;;13.13;5.90;;;11.10;99.90;;;;;;5042376;28;20410;-72
2021/10/16 10:26:23;;;;;;;8.50;5.47;;;11.20;99.90;;;;;;5031554;27;20489;-72
2021/10/16 10:29:04;;;;;;;12.20;5.70;;;11.30;99.90;;;;;;5031373;28;20414;-72
2021/10/16 10:31:45;;;;;;;17.30;6.43;;;11.40;99.90;;;;;;5038278;28;20773;-72
2021/10/16 10:34:19;;;;;;;16.67;6.70;;;11.60;99.90;;;;;;5039716;28;20435;-72
2021/10/16 10:36:47;;;;;;;7.63;3.13;;;11.70;99.90;;;;;;5030598;28;21006;-72
2021/10/16 10:39:33;;;;;;;13.17;4.43;;;11.90;99.90;;;;;;5034394;28;20468;-72
2021/10/16 10:42:14;;;;;;;14.60;3.10;;;12.00;99.90;;;;;;5030670;28;20803;-72
2021/10/16 10:44:51;;;;;;;15.20;4.03;;;12.20;99.90;;;;;;5032010;28;21133;-72
2021/10/16 10:47:36;;;;;;;9.30;3.20;;;12.40;99.70;;;;;;5015814;28;20413;-72
2021/10/16 10:50:05;;;;;;;10.63;2.80;;;12.40;98.50;;;;;;5031666;28;21021;-72
2021/10/16 10:53:02;;;;;;;6.63;2.90;;;12.50;98.30;;;;;;5032200;28;20424;-72
2021/10/16 10:55:28;;;;;;;7.83;2.57;;;12.60;98.10;;;;;;5030930;28;20812;-72
2021/10/16 10:57:58;;;;;;;9.30;2.70;;;12.60;97.50;;;;;;5024622;28;20461;-72
2021/10/16 11:00:31;;;;;;;8.40;3.03;;;12.60;97.30;;;;;;5032044;28;20452;-72
2021/10/16 11:02:57;;;;;;;4.27;2.27;;;12.70;97.50;;;;;;5032072;28;20409;-71
2021/10/16 11:05:28;;;;;;;6.63;2.50;;;12.80;97.40;;;;;;5030828;28;20466;-72
2021/10/16 11:08:04;;;;;;;6.77;2.50;;;12.70;96.30;;;;;;5031068;28;20482;-71
2021/10/16 11:10:29;;;;;;;3.67;1.90;;;12.60;95.50;;;;;;5023127;27;20464;-72
2021/10/16 11:12:55;;;;;;;7.37;2.47;;;12.60;95.90;;;;;;5027770;28;20529;-72
2021/10/16 11:15:22;;;;;;;6.80;2.67;;;12.60;96.00;;;;;;5028640;27;20223;-71
2021/10/16 11:17:49;;;;;;;6.27;3.00;;;12.50;96.20;;;;;;5028495;28;20662;-71
2021/10/16 11:20:19;;;;;;;7.67;2.60;;;12.50;96.90;;;;;;5028913;27;20457;-72
2021/10/16 11:22:51;;;;;;;4.30;2.20;;;12.50;97.10;;;;;;5027928;28;20445;-72
2021/10/16 11:25:25;;;;;;;4.87;2.20;;;12.50;97.00;;;;;;5028516;27;20777;-72
2021/10/16 11:28:11;;;;;;;4.83;1.80;;;12.40;97.00;;;;;;5026696;28;20518;-72
2021/10/16 11:30:42;;;;;;;5.00;2.40;;;12.50;96.80;;;;;;5013345;27;20474;-73
2021/10/16 11:33:11;;;;;;;5.73;2.60;;;12.50;97.20;;;;;;5037822;28;20490;-72
2021/10/16 11:35:39;;;;;;;6.23;2.20;;;12.50;97.40;;;;;;5030460;27;20514;-72
2021/10/16 11:38:06;;;;;;;5.80;2.60;;;12.50;97.30;;;;;;5030491;28;20458;-72
2021/10/16 11:40:34;;;;;;;8.27;2.73;;;12.50;97.10;;;;;;5030298;28;20418;-72
2021/10/16 11:43:02;;;;;;;4.57;2.37;;;12.50;97.10;;;;;;5030639;28;20509;-72
2021/10/16 11:45:30;;;;;;;4.87;2.67;;;12.50;96.70;;;;;;5028973;27;20445;-72
2021/10/16 11:47:59;;;;;;;4.27;2.40;;;12.50;96.40;;;;;;5020557;28;20428;-72
2021/10/16 11:50:30;;;;;;;4.63;2.40;;;12.50;96.80;;;;;;5030612;28;20871;-72
2021/10/16 11:53:07;;;;;;;4.20;2.20;;;12.60;97.20;;;;;;5030520;28;20554;-72
2021/10/16 11:55:33;;;;;;;3.33;2.20;;;12.60;96.30;;;;;;5028833;28;20533;-72
2021/10/16 11:58:07;;;;;;;7.60;2.80;;;12.70;96.60;;;;;;5029031;28;20499;-72
2021/10/16 12:00:35;;;;;;;7.00;3.00;;;12.60;96.30;;;;;;5033788;28;20913;-72
2021/10/16 12:03:09;;;;;;;5.40;2.87;;;12.70;96.90;;;;;;5028168;28;20491;-72
2021/10/16 12:05:35;;;;;;;4.80;2.37;;;12.80;97.30;;;;;;5029605;27;20529;-72
2021/10/16 12:08:24;;;;;;;4.40;2.80;;;12.80;97.40;;;;;;5029975;28;20422;-72
2021/10/16 12:11:01;;;;;;;8.10;2.70;;;12.90;97.30;;;;;;5029877;28;20429;-73
2021/10/16 12:13:32;;;;;;;5.80;2.90;;;13.00;97.20;;;;;;5029763;28;20421;-72
2021/10/16 12:15:58;;;;;;;3.47;3.17;;;13.00;97.30;;;;;;5029849;28;20994;-72
2021/10/16 12:18:26;;;;;;;4.00;2.97;;;13.00;97.40;;;;;;5029941;28;20823;-72
2021/10/16 12:20:55;;;;;;;7.83;3.53;;;12.90;96.00;;;;;;5017326;28;20445;-72
2021/10/16 12:23:23;;;;;;;8.40;3.53;;;12.90;96.20;;;;;;5029091;28;20456;-73
2021/10/16 12:25:52;;;;;;;5.17;2.60;;;12.90;96.60;;;;;;5029768;28;20938;-72
2021/10/16 12:28:19;;;;;;;4.80;2.63;;;13.00;96.20;;;;;;5029755;28;20418;-72
2021/10/16 12:30:59;;;;;;;4.93;2.30;;;13.00;96.10;;;;;;5029835;28;20433;-72
2021/10/16 12:33:25;;;;;;;6.23;3.23;;;13.00;96.10;;;;;;5030040;28;20876;-72
2021/10/16 12:36:01;;;;;;;5.00;3.10;;;13.10;96.20;;;;;;5030385;28;20522;-72
2021/10/16 12:38:44;;;;;;;4.20;2.70;;;13.10;95.80;;;;;;5025986;28;20666;-72
2021/10/16 12:41:25;;;;;;;8.33;3.30;;;13.20;95.70;;;;;;5032282;28;20754;-72
2021/10/16 12:43:52;;;;;;;4.13;2.30;;;13.30;95.60;;;;;;5030476;28;20441;-72
2021/10/16 12:46:38;;;;;;;5.00;3.20;;;13.30;95.40;;;;;;5029475;28;20545;-72
2021/10/16 12:49:04;;;;;;;5.57;2.97;;;13.40;95.30;;;;;;5029047;28;20453;-72
2021/10/16 12:51:39;;;;;;;5.90;3.07;;;13.50;95.20;;;;;;5029685;28;20413;-72
2021/10/16 12:54:05;;;;;;;4.77;2.53;;;13.50;95.00;;;;;;5029490;28;20431;-72
2021/10/16 12:56:30;;;;;;;2.92;2.50;;;13.50;94.70;;;;;;5028797;28;20481;-72